Time;durP1;ratioP1;P1;durP2;ratioP2;P2;SDS_P1;SDS_P2;PMS_P1;PMS_P2;Temp;Humidity;BMP_temperature;BMP_pressure;BME280_temperature;BME280_humidity;BME280_pressure;Samples;Min_cycle;Max_cycle;Signal;HPM_P1;HPM_P2
2022/09/23 00:01:13;;;;;;;14.38;8.90;;;;;;;9.18;99.64;101705.44;4953657;29;20178;-68
2022/09/23 00:03:44;;;;;;;16.00;9.95;;;;;;;9.17;99.80;101709.13;4953579;29;20054;-68
2022/09/23 00:06:12;;;;;;;13.50;8.20;;;;;;;9.14;99.82;101698.81;4953625;29;20677;-68
2022/09/23 00:08:39;;;;;;;18.17;8.80;;;;;;;9.15;99.75;101704.94;4953302;29;20499;-68
2022/09/23 00:11:06;;;;;;;13.95;8.65;;;;;;;9.13;99.42;101696.28;4953345;28;20069;-68
2022/09/23 00:13:33;;;;;;;13.35;8.35;;;;;;;9.02;98.34;101705.44;4953327;29;20171;-68
2022/09/23 00:16:04;;;;;;;15.30;8.57;;;;;;;9.00;98.87;101712.75;4953256;29;20386;-68
2022/09/23 00:18:29;;;;;;;14.27;8.90;;;;;;;9.01;99.32;101711.75;4953269;29;20482;-68
2022/09/23 00:20:55;;;;;;;14.98;8.60;;;;;;;8.99;99.23;101703.94;4953149;28;20086;-68
2022/09/23 00:23:20;;;;;;;12.20;8.10;;;;;;;8.96;99.51;101698.09;4952749;29;20410;-68
2022/09/23 00:25:54;;;;;;;15.05;7.82;;;;;;;8.95;99.95;101693.78;4953105;28;20130;-68
2022/09/23 00:28:20;;;;;;;14.05;8.57;;;;;;;8.98;99.92;101696.94;4934897;29;20062;-68
2022/09/23 00:30:45;;;;;;;15.48;9.35;;;;;;;8.96;99.89;101690.97;4934822;29;20036;-69
2022/09/23 00:33:11;;;;;;;18.50;9.70;;;;;;;8.94;99.88;101692.97;4934205;29;20036;-68
2022/09/23 00:35:37;;;;;;;14.63;9.20;;;;;;;8.95;99.60;101693.78;4933952;29;20058;-68
2022/09/23 00:38:02;;;;;;;16.75;9.00;;;;;;;8.95;99.95;101694.59;4934588;29;20555;-68
2022/09/23 00:40:28;;;;;;;13.25;9.25;;;;;;;8.95;99.84;101691.13;4934175;29;20044;-68
2022/09/23 00:42:53;;;;;;;14.98;8.13;;;;;;;8.83;99.50;101676.47;4934642;29;20083;-68
2022/09/23 00:45:18;;;;;;;16.70;9.15;;;;;;;8.91;99.88;101687.97;4934466;29;20039;-68
2022/09/23 00:47:52;;;;;;;17.45;9.32;;;;;;;8.91;99.93;101695.13;4934584;29;20042;-68
2022/09/23 00:50:26;;;;;;;14.05;7.97;;;;;;;8.81;99.75;101681.16;4934493;29;20020;-68
2022/09/23 00:52:55;;;;;;;13.05;8.80;;;;;;;8.80;99.73;101682.94;4952594;29;20074;-68
2022/09/23 00:55:44;;;;;;;14.68;8.75;;;;;;;8.67;99.88;101664.00;4952479;29;20015;-68
2022/09/23 00:58:13;;;;;;;17.80;9.70;;;;;;;8.72;100.00;101673.16;4952463;29;20122;-68
2022/09/23 01:00:39;;;;;;;14.82;8.52;;;;;;;8.63;99.93;101662.66;4952491;29;20027;-68
2022/09/23 01:03:06;;;;;;;11.82;8.10;;;;;;;8.71;99.99;101671.47;4952476;29;20054;-68
2022/09/23 01:05:33;;;;;;;15.38;9.05;;;;;;;8.70;100.00;101677.81;4952378;29;20035;-68
2022/09/23 01:08:01;;;;;;;17.90;9.60;;;;;;;8.70;100.00;101671.66;4952289;29;20034;-68
2022/09/23 01:10:39;;;;;;;15.00;9.10;;;;;;;8.68;100.00;101673.66;4952367;29;20110;-68
2022/09/23 01:13:17;;;;;;;16.08;10.20;;;;;;;8.60;99.88;101666.50;4952351;29;20023;-68
2022/09/23 01:15:54;;;;;;;16.25;9.15;;;;;;;8.59;99.56;101670.13;4952245;29;20487;-68
2022/09/23 01:18:48;;;;;;;16.17;9.23;;;;;;;8.60;100.00;101666.50;4952273;29;20050;-68
2022/09/23 01:21:29;;;;;;;16.23;9.82;;;;;;;8.59;99.90;101666.63;4952047;29;20062;-68
2022/09/23 01:24:06;;;;;;;15.07;8.57;;;;;;;8.62;100.00;101664.50;4951805;29;20027;-68
2022/09/23 01:27:03;;;;;;;14.57;9.40;;;;;;;8.61;99.70;101669.97;4951839;29;20058;-68
2022/09/23 01:29:49;;;;;;;17.15;9.15;;;;;;;8.60;99.89;101673.63;4952234;29;20387;-68
2022/09/23 01:32:32;;;;;;;15.48;8.95;;;;;;;8.57;99.83;101669.47;4933642;29;20040;-68
2022/09/23 01:35:18;;;;;;;15.68;8.57;;;;;;;8.55;100.00;101660.81;4933350;29;20028;-68
2022/09/23 01:37:56;;;;;;;16.67;9.30;;;;;;;8.59;100.00;101671.94;4952026;29;20122;-68
2022/09/23 01:40:54;;;;;;;13.95;9.38;;;;;;;8.52;100.00;101661.16;4951811;29;20038;-68
2022/09/23 01:43:27;;;;;;;13.27;8.52;;;;;;;8.48;99.34;101657.97;4951849;29;20553;-68
2022/09/23 01:45:56;;;;;;;15.52;10.20;;;;;;;8.38;99.69;101649.28;4951221;29;20031;-68
2022/09/23 01:48:48;;;;;;;15.07;8.63;;;;;;;8.37;99.71;101647.63;4951772;29;20200;-68
2022/09/23 01:51:21;;;;;;;13.07;8.93;;;;;;;8.40;99.59;101655.31;4934381;29;20481;-68
2022/09/23 01:54:14;;;;;;;16.90;9.80;;;;;;;8.39;99.86;101647.47;4951624;29;20059;-68
2022/09/23 01:57:13;;;;;;;14.00;9.18;;;;;;;8.35;100.00;101636.31;4951590;29;20027;-68
2022/09/23 01:59:50;;;;;;;16.92;10.90;;;;;;;8.39;100.00;101651.00;4951251;29;20062;-68
2022/09/23 02:02:27;;;;;;;16.75;9.98;;;;;;;8.39;100.00;101647.47;4951525;29;20532;-68
2022/09/23 02:05:11;;;;;;;14.38;9.55;;;;;;;8.38;100.00;101648.44;4951455;29;20046;-68
2022/09/23 02:07:43;;;;;;;16.55;10.02;;;;;;;8.35;100.00;101646.94;4951575;28;20031;-68
2022/09/23 02:10:19;;;;;;;16.25;8.90;;;;;;;8.37;100.00;101644.13;4951739;28;20376;-68
2022/09/23 02:12:48;;;;;;;14.50;8.50;;;;;;;8.37;100.00;101644.97;4932885;29;20039;-68
2022/09/23 02:15:21;;;;;;;14.57;8.95;;;;;;;8.37;100.00;101647.63;4933094;29;20028;-68
2022/09/23 02:17:57;;;;;;;15.57;10.40;;;;;;;8.38;100.00;101641.31;4951252;29;20386;-68
2022/09/23 02:20:28;;;;;;;19.05;9.85;;;;;;;8.38;100.00;101646.63;4951003;29;20379;-68
2022/09/23 02:22:55;;;;;;;14.10;9.43;;;;;;;8.39;100.00;101640.34;4951069;29;20364;-65
2022/09/23 02:25:30;;;;;;;13.75;8.73;;;;;;;8.42;100.00;101640.03;4950916;29;20091;-65
2022/09/23 02:28:07;;;;;;;14.38;9.35;;;;;;;8.47;100.00;101631.56;4950781;29;20149;-65
2022/09/23 02:30:45;;;;;;;17.95;10.27;;;;;;;8.58;100.00;101636.56;4934836;29;20122;-65
2022/09/23 02:33:19;;;;;;;16.35;9.90;;;;;;;8.59;100.00;101627.56;4951041;29;20028;-65
2022/09/23 02:35:52;;;;;;;13.95;9.77;;;;;;;8.63;100.00;101631.59;4951073;29;20509;-65
2022/09/23 02:38:30;;;;;;;16.80;10.00;;;;;;;8.65;100.00;101628.78;4950980;29;20065;-65
2022/09/23 02:41:08;;;;;;;17.60;10.35;;;;;;;8.70;100.00;101621.13;4950794;29;20023;-65
2022/09/23 02:43:42;;;;;;;15.98;9.52;;;;;;;8.74;100.00;101622.44;4951075;29;20023;-65
2022/09/23 02:46:08;;;;;;;18.17;10.85;;;;;;;8.81;99.98;101617.31;4950925;29;20038;-65
2022/09/23 02:48:55;;;;;;;15.70;10.18;;;;;;;8.84;99.78;101612.47;4950866;29;20031;-65
2022/09/23 02:51:24;;;;;;;17.67;10.90;;;;;;;8.88;99.39;101611.16;4950874;29;20035;-65
2022/09/23 02:53:50;;;;;;;14.40;10.10;;;;;;;8.91;99.14;101612.66;4950901;28;20058;-65
2022/09/23 02:56:19;;;;;;;16.13;9.90;;;;;;;8.86;99.04;101613.16;4950653;28;20035;-65
2022/09/23 02:58:48;;;;;;;18.10;9.98;;;;;;;8.76;99.22;101604.50;4953839;29;20051;-65
2022/09/23 03:01:38;;;;;;;16.17;9.73;;;;;;;8.67;99.20;101598.38;4954416;29;20031;-65
2022/09/23 03:04:05;;;;;;;15.48;10.10;;;;;;;8.64;99.79;101600.50;4936084;29;20428;-65
2022/09/23 03:06:49;;;;;;;19.80;10.05;;;;;;;8.66;100.00;101601.19;4936337;29;20111;-65
2022/09/23 03:09:41;;;;;;;20.50;11.25;;;;;;;8.70;100.00;101597.19;4936272;29;20495;-65
2022/09/23 03:12:34;;;;;;;16.30;9.68;;;;;;;8.72;99.73;101590.72;4936230;29;20949;-65
2022/09/23 03:15:00;;;;;;;19.98;10.73;;;;;;;8.77;99.70;101593.69;4954575;29;20051;-65
2022/09/23 03:17:37;;;;;;;13.15;8.68;;;;;;;8.74;99.47;101587.88;4954448;28;20054;-65
2022/09/23 03:20:11;;;;;;;14.98;8.70;;;;;;;8.67;99.48;101578.91;4936144;29;20060;-65
2022/09/23 03:22:47;;;;;;;16.08;9.18;;;;;;;8.68;99.64;101583.22;4939707;29;20020;-65
2022/09/23 03:25:17;;;;;;;16.70;9.27;;;;;;;8.65;99.74;101583.56;4948752;29;20031;-65
2022/09/23 03:27:44;;;;;;;15.05;9.57;;;;;;;8.57;100.00;101573.75;4953767;29;20027;-65
2022/09/23 03:30:11;;;;;;;15.48;9.35;;;;;;;8.63;100.00;101585.56;4954235;29;20035;-65
2022/09/23 03:32:38;;;;;;;15.00;8.52;;;;;;;8.61;99.87;101582.22;4954067;29;20130;-65
2022/09/23 03:35:05;;;;;;;17.00;9.55;;;;;;;8.60;99.89;101570.75;4954023;29;20027;-65
2022/09/23 03:37:43;;;;;;;17.90;11.32;;;;;;;8.62;99.74;101578.56;4954054;29;20110;-65
2022/09/23 03:40:15;;;;;;;15.23;8.93;;;;;;;8.62;99.54;101571.44;4936658;29;20420;-65
2022/09/23 03:42:41;;;;;;;18.95;9.57;;;;;;;8.68;99.49;101576.09;4953904;29;20031;-65
2022/09/23 03:45:11;;;;;;;16.88;9.73;;;;;;;8.67;99.25;101578.91;4953774;28;20102;-65
2022/09/23 03:47:38;;;;;;;15.52;8.80;;;;;;;8.68;99.32;101578.75;4953801;29;20036;-65
2022/09/23 03:50:04;;;;;;;16.33;9.25;;;;;;;8.65;99.16;101575.59;4953875;29;20035;-65
2022/09/23 03:52:30;;;;;;;18.83;10.95;;;;;;;8.62;99.17;101574.09;4953739;29;20039;-65
2022/09/23 03:54:55;;;;;;;15.77;9.45;;;;;;;8.53;99.21;101564.44;4953767;29;20037;-65
2022/09/23 03:57:22;;;;;;;13.68;8.75;;;;;;;8.47;99.14;101562.44;4953691;29;20045;-65
2022/09/23 03:59:52;;;;;;;16.27;8.90;;;;;;;8.40;99.01;101566.75;4953614;29;20042;-65
2022/09/23 04:02:19;;;;;;;13.95;9.15;;;;;;;8.37;99.56;101565.22;4936587;29;20031;-65
2022/09/23 04:04:45;;;;;;;14.63;9.18;;;;;;;8.35;99.78;101567.22;4953599;28;20472;-65
2022/09/23 04:07:11;;;;;;;14.82;8.50;;;;;;;8.31;100.00;101565.91;4953738;29;20031;-65
2022/09/23 04:09:37;;;;;;;14.75;9.02;;;;;;;8.23;99.86;101553.44;4953016;28;20456;-65
2022/09/23 04:12:03;;;;;;;13.60;8.25;;;;;;;8.25;100.00;101564.72;4952988;29;20066;-65
2022/09/23 04:14:29;;;;;;;15.38;8.80;;;;;;;8.21;100.00;101558.06;4936272;29;20035;-65
2022/09/23 04:16:54;;;;;;;16.55;9.95;;;;;;;8.22;100.00;101569.53;4953355;28;20382;-65
2022/09/23 04:19:20;;;;;;;14.63;9.13;;;;;;;8.22;100.00;101570.34;4953236;29;20059;-65
2022/09/23 04:21:45;;;;;;;13.15;8.10;;;;;;;8.21;100.00;101568.69;4953226;28;20035;-65
2022/09/23 04:24:11;;;;;;;13.95;8.95;;;;;;;8.21;100.00;101562.56;4953234;29;20028;-65
2022/09/23 04:26:37;;;;;;;16.30;9.68;;;;;;;8.22;100.00;101565.03;4953012;29;20045;-65
2022/09/23 04:29:03;;;;;;;16.67;9.48;;;;;;;8.21;100.00;101555.41;4952931;29;20043;-65
2022/09/23 04:31:30;;;;;;;18.05;10.48;;;;;;;8.22;100.00;101561.53;4952823;28;20503;-65
2022/09/23 04:33:56;;;;;;;16.55;8.75;;;;;;;8.20;100.00;101568.84;4953056;29;20029;-65
2022/09/23 04:36:21;;;;;;;15.98;9.35;;;;;;;8.18;100.00;101568.19;4953028;29;20118;-65
2022/09/23 04:38:48;;;;;;;17.00;10.35;;;;;;;8.18;100.00;101566.38;4935693;29;20046;-65
2022/09/23 04:41:14;;;;;;;13.10;8.52;;;;;;;8.13;100.00;101555.41;4953179;29;20043;-65
2022/09/23 04:43:39;;;;;;;14.00;9.35;;;;;;;8.12;100.00;101561.69;4953025;29;20031;-65
2022/09/23 04:46:07;;;;;;;17.80;10.63;;;;;;;8.15;100.00;101561.38;4934177;29;20046;-65
2022/09/23 04:48:35;;;;;;;14.23;8.45;;;;;;;8.21;100.00;101563.38;4952696;29;20027;-65
2022/09/23 04:51:12;;;;;;;14.68;8.10;;;;;;;8.27;100.00;101557.41;4952945;29;20035;-65
2022/09/23 04:53:40;;;;;;;15.38;8.05;;;;;;;8.30;100.00;101561.56;4934397;29;20027;-65
2022/09/23 04:56:08;;;;;;;18.08;9.68;;;;;;;8.34;100.00;101558.41;4934456;29;20502;-65
2022/09/23 04:58:35;;;;;;;12.70;8.63;;;;;;;8.35;100.00;101552.09;4934355;29;20035;-65
2022/09/23 05:01:16;;;;;;;19.70;9.57;;;;;;;8.36;100.00;101552.94;4934327;29;20031;-65
2022/09/23 05:03:43;;;;;;;17.23;8.87;;;;;;;8.33;100.00;101553.25;4952301;28;20038;-65
2022/09/23 05:06:10;;;;;;;16.05;9.45;;;;;;;8.30;100.00;101553.59;4952510;29;20090;-65
2022/09/23 05:08:36;;;;;;;13.98;9.00;;;;;;;8.31;100.00;101563.25;4934061;29;20510;-65
2022/09/23 05:11:03;;;;;;;14.60;8.65;;;;;;;8.27;100.00;101552.09;4934072;29;20036;-65
2022/09/23 05:13:30;;;;;;;17.13;9.45;;;;;;;8.21;100.00;101550.09;4934079;29;20023;-65
2022/09/23 05:16:05;;;;;;;11.60;7.97;;;;;;;8.18;100.00;101547.78;4933877;29;20028;-65
2022/09/23 05:18:31;;;;;;;18.40;10.10;;;;;;;8.11;100.00;101533.47;4933752;29;20031;-65
2022/09/23 05:20:57;;;;;;;12.80;7.72;;;;;;;8.17;100.00;101553.22;4933151;29;20062;-65
2022/09/23 05:23:23;;;;;;;13.68;8.55;;;;;;;8.10;100.00;101551.25;4933893;29;20032;-65
2022/09/23 05:25:55;;;;;;;23.35;10.70;;;;;;;8.11;100.00;101555.53;4933708;29;20031;-65
2022/09/23 05:28:20;;;;;;;17.15;9.10;;;;;;;8.16;100.00;101560.38;4933749;29;20039;-65
2022/09/23 05:30:46;;;;;;;15.35;9.30;;;;;;;8.19;100.00;101564.53;4933496;29;20109;-65
2022/09/23 05:33:11;;;;;;;12.80;8.63;;;;;;;8.19;100.00;101568.03;4933507;29;20038;-68
2022/09/23 05:35:36;;;;;;;18.85;9.25;;;;;;;8.21;100.00;101560.72;4933686;29;20034;-68
2022/09/23 05:38:02;;;;;;;13.65;9.48;;;;;;;8.21;100.00;101565.22;4933440;29;20369;-68
2022/09/23 05:40:27;;;;;;;14.77;8.73;;;;;;;8.15;100.00;101555.22;4933441;29;20066;-68
2022/09/23 05:42:53;;;;;;;13.43;8.57;;;;;;;8.17;100.00;101572.66;4933392;29;20031;-68
2022/09/23 05:45:18;;;;;;;16.83;9.57;;;;;;;8.17;100.00;101567.34;4933370;29;20031;-68
2022/09/23 05:47:43;;;;;;;18.33;10.05;;;;;;;8.28;100.00;101576.84;4916362;29;20032;-68
2022/09/23 05:50:09;;;;;;;14.73;9.30;;;;;;;8.32;100.00;101570.19;4933321;29;20039;-68
2022/09/23 05:52:35;;;;;;;15.05;8.98;;;;;;;8.35;100.00;101567.22;4933124;29;20046;-68
2022/09/23 05:55:01;;;;;;;15.45;8.98;;;;;;;8.36;100.00;101571.56;4933186;29;20031;-68
2022/09/23 05:57:27;;;;;;;19.58;10.75;;;;;;;8.42;100.00;101564.78;4932767;29;20134;-68
2022/09/23 05:59:52;;;;;;;15.93;9.15;;;;;;;8.46;100.00;101574.06;4933050;29;20055;-68
2022/09/23 06:02:17;;;;;;;17.95;8.88;;;;;;;8.47;100.00;101562.44;4933117;29;20395;-68
2022/09/23 06:04:43;;;;;;;15.63;9.57;;;;;;;8.52;99.86;101565.44;4933015;29;20095;-68
2022/09/23 06:07:08;;;;;;;14.35;8.23;;;;;;;8.56;99.44;101575.56;4932742;29;20127;-68
2022/09/23 06:09:34;;;;;;;16.13;9.13;;;;;;;8.58;99.11;101564.78;4932810;29;20035;-68
2022/09/23 06:11:59;;;;;;;14.35;8.43;;;;;;;8.65;99.03;101573.75;4933044;29;20064;-65
2022/09/23 06:14:25;;;;;;;15.43;8.55;;;;;;;8.67;98.88;101569.13;4933024;29;20028;-65
2022/09/23 06:16:50;;;;;;;13.15;8.20;;;;;;;8.70;99.07;101558.13;4915923;29;20039;-65
2022/09/23 06:19:15;;;;;;;14.88;9.30;;;;;;;8.71;99.11;101554.47;4932762;29;20056;-65
2022/09/23 06:21:41;;;;;;;18.48;9.48;;;;;;;8.81;98.80;101564.94;4932620;29;20064;-65
2022/09/23 06:24:07;;;;;;;15.95;9.20;;;;;;;8.85;98.44;101563.59;4932570;29;20106;-65
2022/09/23 06:26:33;;;;;;;15.60;8.82;;;;;;;8.88;98.45;101562.44;4932824;29;20042;-65
2022/09/23 06:29:03;;;;;;;18.17;8.52;;;;;;;8.90;98.16;101558.59;4932692;29;20035;-65
2022/09/23 06:31:29;;;;;;;14.70;9.05;;;;;;;8.94;98.93;101561.78;4937365;29;20378;-65
2022/09/23 06:33:54;;;;;;;16.50;9.25;;;;;;;8.97;98.47;101562.25;4933438;29;20114;-65
2022/09/23 06:36:20;;;;;;;17.27;9.50;;;;;;;9.00;98.07;101567.22;4950840;29;20505;-65
2022/09/23 06:38:48;;;;;;;13.70;8.05;;;;;;;9.05;97.93;101571.22;4950849;29;20047;-64
2022/09/23 06:41:14;;;;;;;14.27;8.00;;;;;;;9.01;97.57;101560.06;4950990;28;20123;-64
2022/09/23 06:43:39;;;;;;;13.93;7.70;;;;;;;9.12;97.67;101564.25;4950710;29;20043;-65
2022/09/23 06:46:06;;;;;;;14.43;8.15;;;;;;;9.16;97.51;101568.22;4950691;29;20035;-66
2022/09/23 06:48:35;;;;;;;11.70;7.38;;;;;;;9.17;96.69;101554.75;4950796;29;20039;-67
2022/09/23 06:51:04;;;;;;;13.88;8.55;;;;;;;9.21;96.45;101557.88;4940334;29;20049;-65
2022/09/23 06:53:33;;;;;;;16.45;8.48;;;;;;;9.22;96.93;101554.22;4950952;28;20027;-65
2022/09/23 06:56:00;;;;;;;15.50;8.82;;;;;;;9.28;96.67;101560.72;4950827;29;20463;-66
2022/09/23 06:58:25;;;;;;;15.00;9.07;;;;;;;9.32;96.46;101557.50;4950583;29;20062;-66
2022/09/23 07:00:51;;;;;;;14.77;7.82;;;;;;;9.39;96.58;101552.34;4950577;29;20035;-66
2022/09/23 07:03:17;;;;;;;16.15;9.82;;;;;;;9.47;96.96;101556.81;4950702;29;20106;-68
2022/09/23 07:05:42;;;;;;;14.25;7.43;;;;;;;9.51;97.19;101551.00;4950429;29;20146;-69
2022/09/23 07:08:10;;;;;;;12.25;7.53;;;;;;;9.59;96.68;101564.28;4950161;28;20075;-69
2022/09/23 07:10:36;;;;;;;13.65;7.88;;;;;;;9.65;96.56;101560.91;4950859;29;20598;-68
2022/09/23 07:13:04;;;;;;;15.98;9.00;;;;;;;9.73;96.32;101560.03;4950523;29;20035;-67
2022/09/23 07:15:29;;;;;;;12.98;7.65;;;;;;;9.78;96.14;101564.84;4950604;29;20118;-69
2022/09/23 07:17:55;;;;;;;12.60;7.95;;;;;;;9.84;95.53;101559.66;4950600;28;20119;-69
2022/09/23 07:20:20;;;;;;;13.85;8.82;;;;;;;9.92;95.07;101561.44;4950535;29;20083;-69
2022/09/23 07:22:51;;;;;;;12.13;7.45;;;;;;;9.97;95.83;101559.09;4950450;28;20394;-69
2022/09/23 07:25:18;;;;;;;14.35;7.78;;;;;;;10.08;94.72;101565.84;4950460;29;20114;-69
2022/09/23 07:27:45;;;;;;;13.38;8.35;;;;;;;10.14;95.04;101564.31;4933096;29;20027;-69
2022/09/23 07:30:12;;;;;;;13.02;7.60;;;;;;;10.22;95.16;101565.09;4945643;28;20027;-71
2022/09/23 07:32:37;;;;;;;15.93;8.43;;;;;;;10.27;94.49;101557.44;4935648;28;20042;-71
2022/09/23 07:35:03;;;;;;;17.65;8.60;;;;;;;10.37;94.45;101562.50;4935157;28;20043;-71
2022/09/23 07:37:28;;;;;;;10.43;6.88;;;;;;;10.43;93.87;101556.50;4936244;28;20063;-71
2022/09/23 07:39:54;;;;;;;12.45;7.47;;;;;;;10.46;93.89;101552.63;4936078;28;20071;-70
2022/09/23 07:42:20;;;;;;;16.58;8.55;;;;;;;10.58;93.22;101559.19;4935589;28;20066;-70
2022/09/23 07:44:46;;;;;;;14.00;7.55;;;;;;;10.67;94.40;101550.13;4936552;28;20147;-69
2022/09/23 07:47:12;;;;;;;13.07;8.10;;;;;;;10.77;94.24;101551.69;4953551;28;20050;-69
2022/09/23 07:49:38;;;;;;;15.18;8.18;;;;;;;10.85;92.79;101555.13;4954065;29;20031;-69
2022/09/23 07:52:04;;;;;;;13.55;7.40;;;;;;;10.95;92.88;101555.72;4936254;29;20062;-69
2022/09/23 07:54:29;;;;;;;19.58;9.75;;;;;;;11.01;93.16;101545.31;4953841;29;20027;-69
2022/09/23 07:56:55;;;;;;;15.73;9.45;;;;;;;11.12;91.70;101558.22;4953777;29;20917;-69
2022/09/23 07:59:20;;;;;;;12.57;7.60;;;;;;;11.22;92.11;101555.28;4953798;29;20027;-68
2022/09/23 08:01:48;;;;;;;13.38;7.85;;;;;;;11.30;91.38;101550.66;4953615;28;20031;-69
2022/09/23 08:04:27;;;;;;;13.55;7.50;;;;;;;11.39;91.64;101556.75;4953662;29;20406;-69
2022/09/23 08:06:58;;;;;;;13.82;9.00;;;;;;;11.50;94.01;101556.28;4953679;28;20450;-69
2022/09/23 08:09:26;;;;;;;15.13;8.88;;;;;;;11.60;92.85;101551.47;4953015;29;20126;-69
2022/09/23 08:11:53;;;;;;;13.00;8.10;;;;;;;11.70;89.43;101556.53;4953398;29;20035;-69
2022/09/23 08:14:21;;;;;;;14.77;7.70;;;;;;;11.78;88.08;101561.75;4953412;28;20487;-69
2022/09/23 08:16:46;;;;;;;12.57;7.68;;;;;;;11.84;87.92;101560.19;4953373;29;20020;-69
2022/09/23 08:19:12;;;;;;;15.95;9.50;;;;;;;11.92;88.40;101561.94;4953216;29;20063;-69
2022/09/23 08:21:38;;;;;;;10.75;7.25;;;;;;;11.96;88.63;101569.41;4953395;29;20487;-68
2022/09/23 08:24:04;;;;;;;14.25;8.63;;;;;;;12.02;88.66;101567.84;4953201;29;20118;-68
2022/09/23 08:26:33;;;;;;;17.98;8.75;;;;;;;12.11;89.94;101561.38;4953318;29;20173;-69
2022/09/23 08:28:59;;;;;;;15.18;8.57;;;;;;;12.19;90.58;101563.91;4953120;29;20031;-69
2022/09/23 08:31:24;;;;;;;16.88;8.75;;;;;;;12.24;88.54;101568.72;4953204;29;20023;-69
2022/09/23 08:33:57;;;;;;;13.35;8.63;;;;;;;12.34;89.88;101565.69;4953244;29;20089;-69
2022/09/23 08:36:24;;;;;;;17.45;8.52;;;;;;;12.41;87.42;101564.75;4952919;29;20185;-69
2022/09/23 08:38:49;;;;;;;15.40;8.23;;;;;;;12.46;87.98;101570.34;4952669;29;20090;-69
2022/09/23 08:41:30;;;;;;;15.05;7.47;;;;;;;12.57;87.73;101565.50;4952837;29;20031;-69
2022/09/23 08:44:01;;;;;;;14.95;8.27;;;;;;;12.61;87.31;101567.63;4952855;29;20976;-69
2022/09/23 08:46:32;;;;;;;15.75;8.18;;;;;;;12.63;85.96;101559.41;4952998;28;20066;-69
2022/09/23 08:48:59;;;;;;;13.32;8.70;;;;;;;12.74;87.78;101568.75;4952973;29;20027;-69
2022/09/23 08:51:34;;;;;;;13.90;8.30;;;;;;;12.75;84.37;101565.88;4952805;28;20059;-68
2022/09/23 08:53:59;;;;;;;14.90;8.63;;;;;;;12.81;84.44;101570.47;4952485;28;20035;-69
2022/09/23 08:56:26;;;;;;;12.18;8.52;;;;;;;12.84;83.67;101558.53;4951679;29;20102;-69
2022/09/23 08:59:08;;;;;;;12.82;7.85;;;;;;;12.95;83.76;101571.41;4935437;29;20035;-69
2022/09/23 09:01:40;;;;;;;13.05;7.57;;;;;;;13.03;83.11;101557.84;4952639;29;20505;-69
2022/09/23 09:04:18;;;;;;;12.32;8.05;;;;;;;13.13;83.62;101557.50;4952610;29;20341;-69
2022/09/23 09:06:49;;;;;;;13.90;8.82;;;;;;;13.23;83.20;101568.72;4952479;29;20034;-68
2022/09/23 09:09:27;;;;;;;17.50;10.60;;;;;;;13.32;84.51;101567.53;4952312;29;20062;-70
2022/09/23 09:12:02;;;;;;;12.15;7.43;;;;;;;13.34;82.23;101559.31;4951968;29;20035;-66
2022/09/23 09:14:41;;;;;;;16.48;8.35;;;;;;;13.36;84.10;101558.09;4952312;29;20031;-64
2022/09/23 09:17:12;;;;;;;13.05;7.57;;;;;;;13.41;82.41;101559.34;4952379;29;20391;-67
2022/09/23 09:20:19;;;;;;;11.90;7.45;;;;;;;13.50;83.79;101553.63;4952183;29;20055;-67
2022/09/23 09:23:01;;;;;;;13.23;8.43;;;;;;;13.57;82.87;101545.59;4952237;29;20078;-65
2022/09/23 09:25:43;;;;;;;14.25;8.55;;;;;;;13.66;81.99;101546.28;4952084;28;20037;-65
2022/09/23 09:28:16;;;;;;;12.30;7.50;;;;;;;13.75;81.32;101550.44;4952059;29;20035;-66
2022/09/23 09:30:48;;;;;;;12.80;8.02;;;;;;;13.86;80.88;101547.19;4951949;29;20443;-65
2022/09/23 09:33:17;;;;;;;12.18;7.47;;;;;;;13.92;80.51;101546.38;4934345;29;20058;-64
2022/09/23 09:36:07;;;;;;;12.27;7.78;;;;;;;14.07;81.22;101540.84;4951752;29;20019;-64
2022/09/23 09:38:34;;;;;;;13.65;8.73;;;;;;;14.14;80.20;101547.03;4951677;29;20043;-64
2022/09/23 09:41:11;;;;;;;12.07;8.00;;;;;;;14.20;80.16;101542.72;4951638;29;20118;-67
2022/09/23 09:43:39;;;;;;;20.33;9.27;;;;;;;14.30;79.36;101543.16;4951705;29;20034;-65
2022/09/23 09:46:28;;;;;;;15.82;9.50;;;;;;;14.43;81.05;101528.91;4951583;28;20034;-66
2022/09/23 09:49:21;;;;;;;12.43;7.30;;;;;;;14.55;80.82;101526.50;4951766;28;20375;-64
2022/09/23 09:51:48;;;;;;;15.18;8.55;;;;;;;14.62;78.58;101528.16;4951736;29;20434;-64
2022/09/23 09:54:25;;;;;;;14.43;7.50;;;;;;;14.71;79.78;101531.44;4951573;29;20118;-64
2022/09/23 09:56:52;;;;;;;13.48;7.93;;;;;;;14.78;79.39;101529.59;4939822;29;20387;-65
2022/09/23 09:59:24;;;;;;;11.27;6.90;;;;;;;14.86;77.85;101533.91;4933302;29;20039;-65
2022/09/23 10:02:21;;;;;;;13.27;7.70;;;;;;;14.98;80.18;101529.53;4933134;29;20071;-65
2022/09/23 10:05:00;;;;;;;12.60;7.55;;;;;;;15.09;78.46;101523.56;4951214;28;20045;-65
2022/09/23 10:07:30;;;;;;;11.02;6.95;;;;;;;15.19;76.25;101523.09;4951320;28;20483;-65
2022/09/23 10:09:56;;;;;;;14.75;7.82;;;;;;;15.27;77.11;101524.72;4951532;29;20057;-65
2022/09/23 10:12:24;;;;;;;14.27;7.18;;;;;;;15.30;73.56;101521.63;4951309;29;20039;-65
2022/09/23 10:14:54;;;;;;;9.32;6.50;;;;;;;15.31;73.55;101521.41;4939256;29;20030;-65
2022/09/23 10:17:26;;;;;;;12.40;7.03;;;;;;;15.39;74.22;101520.38;4932886;29;20023;-65
2022/09/23 10:20:01;;;;;;;12.38;7.25;;;;;;;15.49;75.18;101514.53;4951161;29;20067;-65
2022/09/23 10:22:32;;;;;;;13.57;7.25;;;;;;;15.53;72.92;101513.06;4951198;29;20035;-65
2022/09/23 10:25:02;;;;;;;11.73;7.28;;;;;;;15.58;72.94;101510.56;4951071;29;20038;-65
2022/09/23 10:27:30;;;;;;;11.88;7.10;;;;;;;15.64;72.29;101508.88;4951211;29;20023;-65
2022/09/23 10:29:59;;;;;;;14.43;6.13;;;;;;;15.67;72.44;101519.22;4951012;29;20035;-65
2022/09/23 10:32:26;;;;;;;10.68;6.25;;;;;;;15.70;72.00;101519.66;4950890;29;20039;-65
2022/09/23 10:35:13;;;;;;;12.48;5.90;;;;;;;15.72;72.64;101512.19;4951304;29;20458;-65
2022/09/23 10:37:56;;;;;;;12.00;7.10;;;;;;;15.78;73.23;101510.50;4951338;28;20424;-65
2022/09/23 10:46:40;;;;;;;17.98;7.30;;;;;;;15.96;70.22;101510.63;4950913;28;20129;-65
2022/09/23 10:49:57;;;;;;;10.88;6.45;;;;;;;15.99;72.61;101503.97;4944464;29;20024;-65
2022/09/23 10:52:39;;;;;;;12.98;6.32;;;;;;;16.02;71.77;101508.09;4891376;29;20497;-65
2022/09/23 10:55:21;;;;;;;11.88;6.68;;;;;;;16.02;70.57;101511.59;4950971;29;20106;-65
2022/09/23 10:58:04;;;;;;;9.13;5.20;;;;;;;16.04;69.22;101514.91;4950798;29;20391;-65
2022/09/23 11:00:59;;;;;;;8.90;4.65;;;;;;;16.04;68.90;101506.03;4950744;29;20020;-65
2022/09/23 11:04:00;;;;;;;7.63;4.13;;;;;;;16.09;72.09;101500.81;4950981;28;20118;-65
2022/09/23 11:06:41;;;;;;;10.40;5.80;;;;;;;16.08;70.59;101493.75;4950759;29;20046;-65
2022/09/23 11:09:18;;;;;;;6.28;4.63;;;;;;;16.15;70.07;101499.94;4950588;29;20062;-65
2022/09/23 11:11:58;;;;;;;7.53;4.47;;;;;;;16.19;68.90;101503.81;4950980;29;20043;-65
2022/09/23 11:14:50;;;;;;;8.70;4.53;;;;;;;16.22;70.50;101500.72;4950613;29;20046;-65
2022/09/23 11:17:41;;;;;;;8.63;4.55;;;;;;;16.23;69.16;101505.06;4950511;28;20027;-65
2022/09/23 11:20:24;;;;;;;6.85;4.28;;;;;;;16.25;69.16;101502.97;4953723;29;20058;-65
2022/09/23 11:23:08;;;;;;;6.43;4.18;;;;;;;16.23;68.88;101499.66;4954319;29;20494;-65
2022/09/23 11:25:55;;;;;;;7.70;4.05;;;;;;;16.18;67.90;101494.13;4954235;29;20027;-65
2022/09/23 11:28:41;;;;;;;10.35;4.88;;;;;;;16.20;69.10;101487.47;4935868;29;20039;-66
2022/09/23 11:31:13;;;;;;;7.35;3.80;;;;;;;16.25;66.19;101494.91;4939308;28;20458;-68
2022/09/23 11:34:00;;;;;;;8.75;4.07;;;;;;;16.33;67.95;101488.44;4940140;28;20034;-67
2022/09/23 11:36:32;;;;;;;7.30;3.88;;;;;;;16.40;65.63;101483.78;4939981;28;20103;-66
2022/09/23 11:39:05;;;;;;;9.23;4.25;;;;;;;16.47;64.79;101481.88;4938964;28;20466;-67
2022/09/23 11:41:38;;;;;;;10.27;4.30;;;;;;;16.55;66.29;101475.38;4939943;28;20042;-67
2022/09/23 11:44:18;;;;;;;10.57;4.20;;;;;;;16.60;66.50;101484.44;4938796;28;20042;-66
2022/09/23 11:46:47;;;;;;;7.07;3.33;;;;;;;16.61;65.28;101483.41;4938867;28;20106;-67